createdAt,value
2019-06-27T00:02:00.457Z,5.10
2019-06-27T00:04:30.110Z,4.97
2019-06-27T00:07:04.323Z,5.33
2019-06-27T00:09:34.396Z,4.83
2019-06-27T00:12:04.002Z,4.57
2019-06-27T00:14:36.292Z,4.33
2019-06-27T00:17:06.228Z,4.13
2019-06-27T00:19:38.759Z,4.50
2019-06-27T00:22:10.425Z,4.27
2019-06-27T00:24:40.239Z,3.37
2019-06-27T00:27:10.046Z,4.37
2019-06-27T00:29:40.228Z,3.17
2019-06-27T00:32:09.630Z,4.23
2019-06-27T00:34:39.292Z,3.73
2019-06-27T00:37:10.269Z,4.20
2019-06-27T00:39:39.948Z,4.20
2019-06-27T00:42:12.450Z,3.43
2019-06-27T00:44:43.685Z,4.00
2019-06-27T00:47:17.951Z,4.13
2019-06-27T00:49:47.495Z,4.20
2019-06-27T00:52:17.031Z,4.97
2019-06-27T00:54:47.956Z,4.87
2019-06-27T00:57:18.741Z,4.43
2019-06-27T00:59:49.633Z,5.00
2019-06-27T01:02:20.900Z,4.57
2019-06-27T01:04:53.880Z,4.47
2019-06-27T01:07:26.907Z,4.77
2019-06-27T01:09:57.004Z,4.80
2019-06-27T01:12:27.529Z,4.40
2019-06-27T01:15:00.830Z,4.47
2019-06-27T01:17:34.405Z,4.83
2019-06-27T01:20:09.840Z,4.33
2019-06-27T01:22:39.705Z,4.37
2019-06-27T01:25:12.592Z,5.30
2019-06-27T01:27:44.366Z,4.70
2019-06-27T01:30:15.764Z,5.17
2019-06-27T01:32:45.583Z,4.40
2019-06-27T01:35:15.229Z,5.53
2019-06-27T01:37:45.897Z,4.53
2019-06-27T01:40:16.717Z,5.37
2019-06-27T01:42:47.318Z,5.27
2019-06-27T01:45:25.497Z,4.83
2019-06-27T01:47:55.685Z,5.23
2019-06-27T01:50:27.494Z,6.30
2019-06-27T01:52:57.308Z,4.43
2019-06-27T01:55:27.009Z,6.47
2019-06-27T01:57:56.566Z,6.20
2019-06-27T02:00:27.316Z,6.50
2019-06-27T02:02:56.988Z,5.20
2019-06-27T02:05:27.353Z,5.20
2019-06-27T02:07:58.188Z,5.63
2019-06-27T02:10:30.204Z,6.20
2019-06-27T02:12:59.852Z,6.97
2019-06-27T02:15:29.668Z,6.57
2019-06-27T02:17:59.879Z,5.70
2019-06-27T02:20:30.676Z,7.60
2019-06-27T02:23:00.583Z,6.77
2019-06-27T02:25:32.967Z,6.07
2019-06-27T02:28:04.602Z,7.23
2019-06-27T02:30:44.538Z,7.63
2019-06-27T02:33:14.216Z,7.90
2019-06-27T02:35:43.718Z,7.70
2019-06-27T02:38:13.466Z,6.97
2019-06-27T02:40:44.598Z,7.93
2019-06-27T02:43:14.784Z,7.57
2019-06-27T02:45:45.753Z,5.77
2019-06-27T02:48:18.334Z,7.87
2019-06-27T02:50:47.809Z,7.00
2019-06-27T02:53:17.498Z,8.23
2019-06-27T02:55:47.856Z,8.07
2019-06-27T02:58:29.671Z,7.83
2019-06-27T03:00:48.902Z,7.50
2019-06-27T03:03:18.494Z,9.23
2019-06-27T03:05:48.464Z,8.70
2019-06-27T03:08:18.485Z,8.70
2019-06-27T03:10:48.164Z,10.33
2019-06-27T03:13:17.689Z,9.47
2019-06-27T03:15:47.254Z,10.40
2019-06-27T03:18:16.809Z,8.37
2019-06-27T03:20:46.596Z,9.67
2019-06-27T03:23:16.560Z,10.50
2019-06-27T03:25:46.169Z,8.57
2019-06-27T03:28:15.617Z,6.97
2019-06-27T03:30:45.242Z,9.47
2019-06-27T03:33:15.416Z,8.77
2019-06-27T03:35:44.988Z,9.27
2019-06-27T03:38:14.927Z,10.00
2019-06-27T03:40:44.354Z,8.43
2019-06-27T03:43:14.091Z,9.80
2019-06-27T03:45:51.582Z,8.93
2019-06-27T03:48:22.525Z,9.50
2019-06-27T03:50:56.085Z,8.20
2019-06-27T03:53:23.761Z,7.03
2019-06-27T03:55:56.324Z,8.73
2019-06-27T03:58:26.369Z,9.17
2019-06-27T04:00:58.123Z,7.10
2019-06-27T04:03:30.257Z,7.87
2019-06-27T04:05:59.687Z,7.70
2019-06-27T04:08:32.276Z,7.83
2019-06-27T04:11:03.333Z,7.20
2019-06-27T04:13:32.891Z,6.93
2019-06-27T04:16:02.541Z,7.80
2019-06-27T04:18:32.355Z,7.57
2019-06-27T04:21:02.594Z,6.83
2019-06-27T04:23:32.316Z,7.00
2019-06-27T04:26:02.104Z,7.53
2019-06-27T04:28:31.851Z,7.13
2019-06-27T04:31:01.651Z,6.43
2019-06-27T04:33:31.540Z,7.77
2019-06-27T04:36:01.068Z,7.47
2019-06-27T04:38:30.575Z,7.80
2019-06-27T04:41:00.711Z,8.30
2019-06-27T04:43:30.723Z,7.63
2019-06-27T04:46:00.187Z,6.87
2019-06-27T04:48:32.893Z,6.53
2019-06-27T04:51:02.460Z,6.80
2019-06-27T04:53:32.378Z,5.97
2019-06-27T04:56:02.046Z,5.77
2019-06-27T04:58:31.654Z,5.80
2019-06-27T05:01:01.300Z,6.20
2019-06-27T05:03:31.598Z,5.57
2019-06-27T05:06:01.857Z,4.70
2019-06-27T05:08:31.415Z,4.07
2019-06-27T05:11:00.981Z,4.70
2019-06-27T05:13:32.901Z,3.37
2019-06-27T05:16:02.593Z,4.23
2019-06-27T05:18:32.419Z,4.40
2019-06-27T05:21:02.353Z,4.70
2019-06-27T05:23:31.875Z,5.17
2019-06-27T05:26:01.500Z,3.67
2019-06-27T05:28:31.393Z,4.10
2019-06-27T05:31:01.133Z,4.40
2019-06-27T05:33:31.648Z,4.60
2019-06-27T05:36:02.611Z,4.33
2019-06-27T05:38:32.530Z,5.03
2019-06-27T05:41:02.101Z,4.30
2019-06-27T05:43:32.271Z,4.20
2019-06-27T05:46:01.781Z,4.30
2019-06-27T05:48:31.541Z,3.83
2019-06-27T05:51:01.815Z,4.10
2019-06-27T05:53:32.181Z,3.60
2019-06-27T05:56:01.964Z,3.90
2019-06-27T05:58:31.552Z,4.00
2019-06-27T06:01:01.217Z,3.73
2019-06-27T06:03:31.570Z,4.00
2019-06-27T06:06:01.325Z,3.73
2019-06-27T06:08:31.679Z,3.67
2019-06-27T06:11:02.186Z,4.33
2019-06-27T06:13:31.828Z,2.70
2019-06-27T06:16:01.679Z,4.07
2019-06-27T06:18:31.826Z,3.70
2019-06-27T06:21:01.348Z,3.80
2019-06-27T06:23:30.852Z,3.43
2019-06-27T06:26:00.359Z,4.20
2019-06-27T06:28:29.871Z,4.03
2019-06-27T06:30:59.936Z,3.13
2019-06-27T06:33:32.183Z,2.67
2019-06-27T06:36:01.606Z,2.90
2019-06-27T06:38:31.121Z,2.90
2019-06-27T06:41:00.429Z,3.00
2019-06-27T06:43:30.108Z,3.03
2019-06-27T06:45:59.534Z,3.20
2019-06-27T06:48:30.479Z,3.70
2019-06-27T06:51:02.233Z,3.30
2019-06-27T06:53:32.441Z,4.00
2019-06-27T06:56:01.858Z,3.70
2019-06-27T06:58:31.214Z,3.53
2019-06-27T07:01:02.412Z,3.80
2019-06-27T07:03:32.254Z,3.83
2019-06-27T07:06:02.541Z,3.20
2019-06-27T07:08:32.154Z,4.47
2019-06-27T07:11:01.681Z,3.33
2019-06-27T07:13:31.672Z,3.20
2019-06-27T07:16:01.055Z,3.57
2019-06-27T07:18:31.554Z,3.50
2019-06-27T07:21:01.484Z,3.37
2019-06-27T07:23:31.269Z,3.20
2019-06-27T07:26:00.955Z,23.30
2019-06-27T07:28:30.542Z,4.07
2019-06-27T07:31:08.259Z,3.20
2019-06-27T07:33:32.345Z,3.80
2019-06-27T07:36:01.779Z,3.83
2019-06-27T07:38:31.707Z,3.50
2019-06-27T07:41:01.677Z,4.10
2019-06-27T07:43:36.313Z,3.57
2019-06-27T07:46:05.716Z,2.90
2019-06-27T07:48:36.966Z,2.80
2019-06-27T07:51:06.313Z,3.10
2019-06-27T07:53:35.766Z,3.33
2019-06-27T07:56:05.461Z,3.30
2019-06-27T07:58:34.869Z,3.43
2019-06-27T08:01:05.866Z,3.20
2019-06-27T08:03:35.578Z,2.73
2019-06-27T08:06:05.023Z,2.43
2019-06-27T08:08:35.879Z,2.93
2019-06-27T08:11:05.876Z,2.47
2019-06-27T08:13:36.024Z,2.77
2019-06-27T08:16:05.528Z,2.80
2019-06-27T08:18:35.492Z,2.30
2019-06-27T08:21:05.996Z,2.60
2019-06-27T08:23:41.441Z,2.70
2019-06-27T08:26:06.964Z,2.00
2019-06-27T08:28:36.759Z,2.40
2019-06-27T08:31:08.227Z,2.67
2019-06-27T08:33:37.689Z,2.53
2019-06-27T08:36:07.116Z,2.73
2019-06-27T08:38:36.748Z,2.37
2019-06-27T08:41:06.877Z,2.40
2019-06-27T08:43:36.441Z,2.10
2019-06-27T08:46:05.847Z,2.50
2019-06-27T08:48:35.214Z,2.40
2019-06-27T08:51:04.677Z,1.70
2019-06-27T08:53:34.198Z,2.63
2019-06-27T08:56:03.555Z,1.87
2019-06-27T08:58:33.315Z,1.93
2019-06-27T09:01:02.862Z,1.90
2019-06-27T09:03:33.459Z,2.20
2019-06-27T09:06:03.021Z,2.13
2019-06-27T09:08:32.921Z,2.00
2019-06-27T09:11:02.519Z,1.83
2019-06-27T09:13:32.121Z,1.90
2019-06-27T09:16:02.380Z,1.90
2019-06-27T09:18:31.821Z,2.10
2019-06-27T09:21:02.141Z,2.20
2019-06-27T09:23:31.989Z,2.00
2019-06-27T09:26:01.526Z,1.90
2019-06-27T09:28:31.530Z,2.23
2019-06-27T09:31:00.952Z,2.30
2019-06-27T09:33:32.046Z,2.13
2019-06-27T09:36:01.621Z,2.00
2019-06-27T09:38:31.572Z,2.70
2019-06-27T09:41:01.213Z,1.90
2019-06-27T09:43:30.778Z,1.83
2019-06-27T09:46:00.359Z,2.10
2019-06-27T09:48:32.640Z,2.10
2019-06-27T09:51:02.435Z,2.30
2019-06-27T09:53:32.088Z,2.10
2019-06-27T09:56:01.565Z,2.20
2019-06-27T09:58:31.034Z,2.13
2019-06-27T10:01:00.562Z,1.40
2019-06-27T10:03:34.512Z,1.80
2019-06-27T10:06:04.025Z,2.00
2019-06-27T10:08:33.451Z,2.00
2019-06-27T10:11:02.867Z,2.00
2019-06-27T10:13:32.865Z,2.20
2019-06-27T10:16:02.525Z,2.10
2019-06-27T10:18:31.807Z,2.00
2019-06-27T10:21:02.007Z,1.83
2019-06-27T10:23:31.416Z,1.90
2019-06-27T10:26:28.509Z,1.90
2019-06-27T10:29:11.869Z,1.93
2019-06-27T10:31:41.487Z,2.07
2019-06-27T10:34:10.940Z,2.63
2019-06-27T10:36:40.341Z,1.53
2019-06-27T10:39:10.032Z,2.07
2019-06-27T10:41:39.362Z,2.03
2019-06-27T10:44:08.719Z,1.83
2019-06-27T10:46:38.184Z,2.20
2019-06-27T10:49:07.684Z,2.03
2019-06-27T10:51:37.065Z,2.23
2019-06-27T10:54:06.538Z,2.10
2019-06-27T10:56:40.217Z,2.20
2019-06-27T10:59:14.765Z,2.10
2019-06-27T11:01:44.963Z,2.80
2019-06-27T11:04:14.413Z,2.73
2019-06-27T11:06:43.940Z,2.20
2019-06-27T11:09:14.745Z,2.50
2019-06-27T11:11:44.737Z,2.77
2019-06-27T11:14:13.987Z,2.97
2019-06-27T11:16:46.081Z,2.23
2019-06-27T11:19:16.337Z,2.50
2019-06-27T11:21:45.808Z,2.47
2019-06-27T11:24:17.443Z,2.30
2019-06-27T11:26:48.985Z,2.47
2019-06-27T11:29:21.559Z,2.20
2019-06-27T11:31:52.730Z,2.50
2019-06-27T11:34:22.424Z,2.60
2019-06-27T11:36:52.662Z,2.37
2019-06-27T11:39:23.483Z,2.70
2019-06-27T11:41:52.982Z,2.33
2019-06-27T11:44:24.184Z,2.30
2019-06-27T11:46:54.528Z,2.00
2019-06-27T11:49:23.908Z,2.50
2019-06-27T11:51:53.984Z,2.13
2019-06-27T11:54:24.091Z,2.17
2019-06-27T11:56:56.466Z,2.57
2019-06-27T11:59:25.760Z,2.13
2019-06-27T12:01:55.212Z,2.23
2019-06-27T12:04:24.516Z,1.80
2019-06-27T12:06:53.854Z,1.60
2019-06-27T12:09:23.253Z,1.53
2019-06-27T12:11:52.762Z,1.70
2019-06-27T12:14:22.412Z,1.80
2019-06-27T12:16:51.830Z,1.83
2019-06-27T12:19:21.407Z,2.13
2019-06-27T12:21:51.493Z,2.00
2019-06-27T12:24:22.510Z,1.77
2019-06-27T12:26:53.763Z,2.20
2019-06-27T12:29:23.655Z,2.00
2019-06-27T12:31:57.159Z,2.00
2019-06-27T12:34:26.811Z,1.83
2019-06-27T12:36:56.235Z,2.23
2019-06-27T12:39:26.030Z,1.27
2019-06-27T12:41:58.012Z,1.93
2019-06-27T12:44:30.849Z,1.53
2019-06-27T12:47:03.149Z,2.13
2019-06-27T12:49:50.004Z,1.93
2019-06-27T12:52:11.511Z,1.90
2019-06-27T12:54:41.183Z,1.80
2019-06-27T12:57:10.740Z,2.10
2019-06-27T12:59:40.965Z,1.47
2019-06-27T13:02:11.714Z,2.43
2019-06-27T13:04:41.953Z,2.00
2019-06-27T13:07:18.059Z,2.00
2019-06-27T13:09:47.622Z,1.47
2019-06-27T13:12:18.325Z,2.00
2019-06-27T13:14:50.554Z,1.63
2019-06-27T13:17:19.165Z,2.27
2019-06-27T13:19:49.308Z,1.80
2019-06-27T13:22:19.137Z,1.80
2019-06-27T13:24:48.530Z,1.93
2019-06-27T13:27:18.567Z,1.57
2019-06-27T13:29:47.917Z,1.67
2019-06-27T13:32:25.134Z,2.20
2019-06-27T13:34:56.857Z,1.43
2019-06-27T13:37:29.918Z,2.00
2019-06-27T13:40:04.651Z,1.80
2019-06-27T13:42:38.660Z,1.50
2019-06-27T13:45:09.077Z,1.23
2019-06-27T13:47:42.430Z,1.40
2019-06-27T13:50:13.515Z,1.90
2019-06-27T13:52:42.998Z,1.40
2019-06-27T13:55:12.736Z,1.70
2019-06-27T13:57:43.717Z,1.57
2019-06-27T14:00:14.098Z,2.47
2019-06-27T14:02:43.660Z,2.97
2019-06-27T14:05:13.654Z,3.70
2019-06-27T14:07:43.225Z,4.67
2019-06-27T14:10:13.291Z,4.50
2019-06-27T14:12:44.837Z,3.27
2019-06-27T14:15:15.324Z,3.00
2019-06-27T14:17:45.138Z,3.70
2019-06-27T14:20:24.239Z,2.70
2019-06-27T14:23:01.687Z,2.83
2019-06-27T14:25:40.808Z,2.90
2019-06-27T14:28:13.066Z,1.93
2019-06-27T14:30:48.871Z,2.10
2019-06-27T14:33:23.340Z,1.90
2019-06-27T14:35:53.331Z,2.00
2019-06-27T14:38:24.011Z,1.93
2019-06-27T14:40:57.217Z,2.13
2019-06-27T14:43:30.760Z,2.00
2019-06-27T14:46:00.600Z,1.37
2019-06-27T14:48:33.681Z,2.23
2019-06-27T14:51:03.534Z,1.90
2019-06-27T14:53:35.456Z,1.67
2019-06-27T14:56:05.240Z,1.57
2019-06-27T14:58:34.896Z,2.10
2019-06-27T15:01:08.495Z,1.37
2019-06-27T15:03:36.293Z,1.23
2019-06-27T15:06:05.651Z,0.90
2019-06-27T15:08:35.908Z,1.40
2019-06-27T15:11:09.343Z,1.40
2019-06-27T15:13:41.335Z,2.23
2019-06-27T15:16:12.681Z,1.57
2019-06-27T15:18:42.861Z,1.17
2019-06-27T15:21:12.845Z,1.70
2019-06-27T15:23:42.410Z,1.80
2019-06-27T15:26:12.765Z,1.90
2019-06-27T15:28:43.799Z,2.33
2019-06-27T15:31:14.192Z,2.00
2019-06-27T15:33:45.096Z,1.97
2019-06-27T15:36:16.029Z,1.60
2019-06-27T15:38:46.083Z,2.10
2019-06-27T15:41:15.566Z,1.40
2019-06-27T15:43:45.465Z,1.90
2019-06-27T15:46:15.811Z,1.53
2019-06-27T15:49:40.252Z,1.57
2019-06-27T15:52:34.624Z,2.00
2019-06-27T15:55:51.047Z,2.00
2019-06-27T15:58:59.404Z,1.83
2019-06-27T16:01:41.373Z,1.70
2019-06-27T16:04:56.201Z,1.90
2019-06-27T16:07:26.662Z,2.20
2019-06-27T16:09:56.220Z,2.20
2019-06-27T16:12:26.412Z,1.90
2019-06-27T16:14:56.034Z,1.50
2019-06-27T16:17:25.624Z,2.20
2019-06-27T16:19:55.643Z,1.50
2019-06-27T16:22:25.541Z,1.70
2019-06-27T16:24:55.343Z,2.00
2019-06-27T16:27:24.950Z,1.97
2019-06-27T16:29:54.446Z,2.13
2019-06-27T16:32:23.922Z,1.93
2019-06-27T16:34:53.577Z,1.67
2019-06-27T16:37:23.169Z,1.67
2019-06-27T16:39:52.728Z,2.40
2019-06-27T16:42:22.502Z,2.10
2019-06-27T16:44:52.096Z,1.50
2019-06-27T16:47:21.597Z,1.97
2019-06-27T16:49:52.158Z,1.80
2019-06-27T16:52:22.280Z,2.00
2019-06-27T16:54:51.728Z,1.80
2019-06-27T16:57:21.202Z,1.77
2019-06-27T16:59:53.257Z,2.03
2019-06-27T17:02:22.923Z,2.93
2019-06-27T17:04:52.434Z,2.17
2019-06-27T17:07:25.036Z,2.20
2019-06-27T17:09:56.240Z,2.40
2019-06-27T17:12:32.173Z,2.00
2019-06-27T17:15:09.893Z,2.40
2019-06-27T17:17:40.711Z,2.20
2019-06-27T17:20:10.772Z,1.77
2019-06-27T17:22:41.796Z,2.43
2019-06-27T17:25:21.357Z,2.20
2019-06-27T17:27:51.467Z,2.03
2019-06-27T17:30:22.520Z,1.63
2019-06-27T17:32:52.251Z,2.57
2019-06-27T17:35:25.891Z,2.20
2019-06-27T17:37:55.597Z,2.30
2019-06-27T17:40:27.834Z,2.30
2019-06-27T17:42:57.489Z,1.80
2019-06-27T17:45:27.073Z,2.33
2019-06-27T17:47:59.520Z,2.13
2019-06-27T17:50:29.164Z,2.03
2019-06-27T17:52:59.133Z,2.00
2019-06-27T17:55:29.330Z,2.20
2019-06-27T17:57:58.944Z,2.43
2019-06-27T18:00:29.943Z,2.63
2019-06-27T18:02:59.869Z,2.37
2019-06-27T18:05:35.444Z,2.27
2019-06-27T18:08:06.228Z,3.00
2019-06-27T18:10:35.831Z,3.00
2019-06-27T18:13:05.433Z,2.70
2019-06-27T18:15:35.080Z,2.23
2019-06-27T18:18:08.550Z,2.03
2019-06-27T18:20:38.583Z,3.17
2019-06-27T18:23:12.037Z,3.00
2019-06-27T18:25:41.706Z,3.10
2019-06-27T18:28:15.764Z,2.60
2019-06-27T18:30:45.403Z,2.30
2019-06-27T18:33:14.934Z,3.17
2019-06-27T18:35:44.549Z,3.10
2019-06-27T18:38:14.138Z,3.17
2019-06-27T18:40:43.770Z,3.00
2019-06-27T18:43:13.951Z,2.90
2019-06-27T18:45:44.091Z,3.60
2019-06-27T18:48:13.842Z,2.83
2019-06-27T18:50:43.283Z,3.20
2019-06-27T18:53:13.977Z,2.80
2019-06-27T18:55:43.578Z,2.90
2019-06-27T18:58:13.187Z,2.83
2019-06-27T19:00:43.438Z,2.43
2019-06-27T19:03:13.371Z,2.30
2019-06-27T19:05:42.976Z,2.50
2019-06-27T19:08:12.811Z,2.60
2019-06-27T19:10:42.531Z,2.47
2019-06-27T19:13:12.591Z,2.23
2019-06-27T19:15:42.351Z,2.43
2019-06-27T19:18:31.173Z,2.10
2019-06-27T19:21:05.473Z,2.23
2019-06-27T19:23:44.771Z,2.23
2019-06-27T19:26:19.183Z,2.33
2019-06-27T19:28:48.925Z,2.50
2019-06-27T19:31:18.602Z,2.20
2019-06-27T19:33:48.687Z,2.30
2019-06-27T19:36:19.111Z,2.50
2019-06-27T19:38:53.306Z,1.80
2019-06-27T19:41:27.710Z,2.03
2019-06-27T19:44:00.109Z,2.00
2019-06-27T19:46:35.179Z,2.30
2019-06-27T19:49:15.764Z,2.10
2019-06-27T19:51:49.430Z,2.50
2019-06-27T19:54:21.703Z,2.20
2019-06-27T19:56:59.448Z,2.03
2019-06-27T19:59:43.046Z,2.10
2019-06-27T20:02:08.722Z,2.50
2019-06-27T20:04:53.149Z,1.83
2019-06-27T20:07:26.579Z,1.97
2019-06-27T20:09:57.118Z,2.00
2019-06-27T20:12:28.739Z,2.00
2019-06-27T20:15:04.882Z,2.20
2019-06-27T20:17:35.178Z,1.70
2019-06-27T20:20:15.478Z,1.97
2019-06-27T20:22:47.500Z,2.13
2019-06-27T20:25:20.069Z,2.20
2019-06-27T20:28:01.421Z,2.20
2019-06-27T20:30:31.148Z,2.10
2019-06-27T20:33:01.450Z,2.20
2019-06-27T20:35:33.038Z,1.90
2019-06-27T20:38:05.905Z,2.17
2019-06-27T20:40:40.220Z,1.90
2019-06-27T20:43:10.019Z,2.20
2019-06-27T20:45:42.923Z,2.03
2019-06-27T20:48:23.272Z,2.40
2019-06-27T20:51:03.931Z,2.07
2019-06-27T20:53:37.523Z,2.10
2019-06-27T20:56:12.161Z,1.60
2019-06-27T20:58:44.379Z,2.20
2019-06-27T21:01:14.648Z,2.50
2019-06-27T21:03:52.740Z,2.47
2019-06-27T21:06:23.490Z,2.30
2019-06-27T21:08:57.867Z,2.30
2019-06-27T21:11:27.858Z,2.17
2019-06-27T21:14:00.566Z,2.33
2019-06-27T21:16:33.158Z,2.30
2019-06-27T21:19:05.330Z,2.30
2019-06-27T21:21:46.819Z,2.57
2019-06-27T21:24:31.134Z,2.40
2019-06-27T21:27:12.114Z,2.50
2019-06-27T21:29:53.117Z,1.83
2019-06-27T21:32:31.809Z,2.30
2019-06-27T21:35:01.081Z,1.80
2019-06-27T21:37:30.434Z,2.37
2019-06-27T21:40:01.481Z,2.13
2019-06-27T21:42:31.243Z,2.00
2019-06-27T21:45:02.650Z,2.50
2019-06-27T21:47:33.135Z,2.13
2019-06-27T21:50:03.529Z,2.13
2019-06-27T21:52:35.652Z,2.23
2019-06-27T21:55:10.156Z,1.67
2019-06-27T21:57:41.019Z,2.30
2019-06-27T22:00:18.001Z,2.07
2019-06-27T22:02:47.664Z,2.10
2019-06-27T22:05:20.154Z,1.73
2019-06-27T22:07:53.525Z,1.70
2019-06-27T22:10:23.441Z,2.00
2019-06-27T22:12:52.988Z,1.83
2019-06-27T22:15:25.461Z,1.70
2019-06-27T22:17:54.966Z,1.53
2019-06-27T22:20:25.093Z,1.47
2019-06-27T22:22:54.861Z,1.77
2019-06-27T22:25:39.305Z,1.57
2019-06-27T22:27:57.338Z,1.63
2019-06-27T22:30:26.976Z,1.80
2019-06-27T22:32:56.677Z,2.00
2019-06-27T22:35:29.660Z,1.50
2019-06-27T22:38:17.145Z,1.53
2019-06-27T22:41:04.828Z,1.60
2019-06-27T22:43:52.834Z,1.70
2019-06-27T22:46:40.217Z,1.83
2019-06-27T22:49:09.584Z,1.80
2019-06-27T22:51:57.235Z,1.63
2019-06-27T22:54:31.175Z,1.70
2019-06-27T22:57:01.472Z,1.63
2019-06-27T22:59:34.429Z,1.80
2019-06-27T23:02:04.485Z,1.80
2019-06-27T23:04:51.582Z,1.70
2019-06-27T23:07:22.153Z,2.13
2019-06-27T23:09:57.636Z,2.10
2019-06-27T23:12:30.327Z,1.60
2019-06-27T23:15:00.211Z,2.07
2019-06-27T23:17:32.561Z,2.60
2019-06-27T23:20:02.303Z,2.47
2019-06-27T23:22:31.775Z,2.50
2019-06-27T23:25:05.379Z,2.60
2019-06-27T23:27:35.936Z,2.03
2019-06-27T23:30:05.643Z,2.60
2019-06-27T23:32:35.298Z,2.77
2019-06-27T23:35:06.128Z,2.60
2019-06-27T23:37:39.004Z,2.73
2019-06-27T23:40:14.187Z,2.50
2019-06-27T23:42:40.712Z,2.70
2019-06-27T23:45:10.402Z,2.93
2019-06-27T23:47:40.234Z,2.40
2019-06-27T23:50:10.738Z,2.70
2019-06-27T23:52:40.412Z,2.97
2019-06-27T23:55:10.967Z,2.40
2019-06-27T23:57:40.804Z,2.70
